createdAt,value
2017-08-06T00:00:49.378Z,1017.73
2017-08-06T00:01:58.684Z,1017.71
2017-08-06T00:03:08.213Z,1017.72
2017-08-06T00:04:17.744Z,1017.73
2017-08-06T00:05:27.277Z,1017.69
2017-08-06T00:06:36.479Z,1017.72
2017-08-06T00:07:45.886Z,1017.71
2017-08-06T00:08:54.767Z,1017.66
2017-08-06T00:10:04.316Z,1017.68
2017-08-06T00:11:13.860Z,1017.67
2017-08-06T00:12:23.393Z,1017.67
2017-08-06T00:13:32.968Z,1017.66
2017-08-06T00:14:42.389Z,1017.7
2017-08-06T00:15:51.594Z,1017.71
2017-08-06T00:17:00.799Z,1017.68
2017-08-06T00:18:10.005Z,1017.71
2017-08-06T00:19:19.369Z,1017.71
2017-08-06T00:20:28.905Z,1017.72
2017-08-06T00:21:38.113Z,1017.7
2017-08-06T00:22:47.647Z,1017.78
2017-08-06T00:23:57.496Z,1017.79
2017-08-06T00:25:07.400Z,1017.78
2017-08-06T00:26:16.600Z,1017.8
2017-08-06T00:27:25.824Z,1017.8
2017-08-06T00:28:35.352Z,1017.81
2017-08-06T00:29:45.223Z,1017.86
2017-08-06T00:30:54.919Z,1017.86
2017-08-06T00:32:04.447Z,1017.81
2017-08-06T00:33:13.661Z,1017.87
2017-08-06T00:34:22.542Z,1017.86
2017-08-06T00:35:31.746Z,1017.95
2017-08-06T00:36:41.442Z,1017.93
2017-08-06T00:37:51.297Z,1017.88
2017-08-06T00:39:00.502Z,1017.92
2017-08-06T00:40:10.028Z,1017.98
2017-08-06T00:41:19.562Z,1017.89
2017-08-06T00:42:29.143Z,1017.98
2017-08-06T00:43:39.001Z,1017.89
2017-08-06T00:44:47.885Z,1017.95
2017-08-06T00:45:57.086Z,1017.97
2017-08-06T00:47:06.619Z,1017.99
2017-08-06T00:48:16.081Z,1017.91
2017-08-06T00:49:24.961Z,1017.93
2017-08-06T00:50:34.166Z,1017.91
2017-08-06T00:51:43.372Z,1017.91
2017-08-06T00:52:52.251Z,1017.92
2017-08-06T00:54:02.276Z,1017.91
2017-08-06T00:55:11.806Z,1017.92
2017-08-06T00:56:21.983Z,1017.95
2017-08-06T00:57:31.507Z,1017.94
2017-08-06T00:58:41.355Z,1017.92
2017-08-06T00:59:50.664Z,1017.96
2017-08-06T01:01:00.197Z,1017.99
2017-08-06T01:02:10.045Z,1018.03
2017-08-06T01:03:19.582Z,1018
2017-08-06T01:04:29.432Z,1018.02
2017-08-06T01:05:38.364Z,1018.03
2017-08-06T01:06:47.891Z,1017.97
2017-08-06T01:07:57.415Z,1018.03
2017-08-06T01:09:07.267Z,1018.02
2017-08-06T01:10:16.152Z,1018
2017-08-06T01:11:25.458Z,1018.01
2017-08-06T01:12:34.988Z,1018
2017-08-06T01:13:44.189Z,1018.02
2017-08-06T01:14:53.726Z,1018
2017-08-06T01:16:03.575Z,1018.03
2017-08-06T01:17:13.311Z,1018.05
2017-08-06T01:18:22.514Z,1018.07
2017-08-06T01:19:31.722Z,1018.06
2017-08-06T01:20:40.925Z,1018.07
2017-08-06T01:21:50.468Z,1018.05
2017-08-06T01:23:00.709Z,1018.11
2017-08-06T01:24:10.557Z,1018.12
2017-08-06T01:25:20.412Z,1018.13
2017-08-06T01:26:29.941Z,1018.12
2017-08-06T01:27:39.802Z,1018.16
2017-08-06T01:28:49.858Z,1018.18
2017-08-06T01:29:59.391Z,1018.22
2017-08-06T01:31:09.249Z,1018.27
2017-08-06T01:32:18.780Z,1018.23
2017-08-06T01:33:28.310Z,1018.26
2017-08-06T01:34:38.258Z,1018.3
2017-08-06T01:35:47.784Z,1018.32
2017-08-06T01:36:57.631Z,1018.36
2017-08-06T01:38:07.162Z,1018.34
2017-08-06T01:39:16.690Z,1018.39
2017-08-06T01:40:27.066Z,1018.41
2017-08-06T01:41:36.279Z,1018.43
2017-08-06T01:42:45.480Z,1018.42
2017-08-06T01:43:55.015Z,1018.47
2017-08-06T01:45:05.187Z,1018.47
2017-08-06T01:46:14.445Z,1018.55
2017-08-06T01:47:23.650Z,1018.52
2017-08-06T01:48:32.859Z,1018.52
2017-08-06T01:49:42.076Z,1018.52
2017-08-06T01:50:51.607Z,1018.51
2017-08-06T01:52:01.184Z,1018.51
2017-08-06T01:53:10.064Z,1018.54
2017-08-06T01:54:19.588Z,1018.58
2017-08-06T01:55:28.472Z,1018.53
2017-08-06T01:56:37.685Z,1018.56
2017-08-06T01:57:47.188Z,1018.55
2017-08-06T01:58:56.404Z,1018.55
2017-08-06T02:00:05.285Z,1018.6
2017-08-06T02:01:15.135Z,1018.57
2017-08-06T02:02:24.017Z,1018.59
2017-08-06T02:03:33.642Z,1018.64
2017-08-06T02:04:42.866Z,1018.63
2017-08-06T02:05:52.074Z,1018.66
2017-08-06T02:07:01.280Z,1018.63
2017-08-06T02:08:10.161Z,1018.66
2017-08-06T02:09:20.311Z,1018.67
2017-08-06T02:10:29.514Z,1018.66
2017-08-06T02:11:38.725Z,1018.69
2017-08-06T02:12:47.927Z,1018.6
2017-08-06T02:13:56.812Z,1018.68
2017-08-06T02:15:07.014Z,1018.68
2017-08-06T02:16:16.223Z,1018.65
2017-08-06T02:17:26.071Z,1018.66
2017-08-06T02:18:35.271Z,1018.7
2017-08-06T02:19:44.150Z,1018.69
2017-08-06T02:20:53.374Z,1018.7
2017-08-06T02:22:02.911Z,1018.74
2017-08-06T02:23:12.113Z,1018.74
2017-08-06T02:24:21.965Z,1018.71
2017-08-06T02:25:31.492Z,1018.75
2017-08-06T02:26:41.493Z,1018.73
2017-08-06T02:27:51.345Z,1018.76
2017-08-06T02:29:00.225Z,1018.78
2017-08-06T02:30:09.760Z,1018.77
2017-08-06T02:31:19.296Z,1018.8
2017-08-06T02:32:29.074Z,1018.77
2017-08-06T02:33:38.601Z,1018.72
2017-08-06T02:34:48.131Z,1018.78
2017-08-06T02:35:57.350Z,1018.77
2017-08-06T02:37:06.554Z,1018.79
2017-08-06T02:38:16.084Z,1018.8
2017-08-06T02:39:25.943Z,1018.78
2017-08-06T02:40:36.127Z,1018.82
2017-08-06T02:41:45.657Z,1018.82
2017-08-06T02:42:55.188Z,1018.8
2017-08-06T02:44:05.140Z,1018.86
2017-08-06T02:45:15.001Z,1018.89
2017-08-06T02:46:24.534Z,1018.84
2017-08-06T02:47:34.388Z,1018.9
2017-08-06T02:48:43.269Z,1018.9
2017-08-06T02:49:53.129Z,1018.9
2017-08-06T02:51:02.684Z,1018.94
2017-08-06T02:52:12.542Z,1018.87
2017-08-06T02:53:22.072Z,1018.88
2017-08-06T02:54:31.617Z,1018.94
2017-08-06T02:55:41.118Z,1018.91
2017-08-06T02:56:50.970Z,1018.95
2017-08-06T02:58:00.174Z,1018.95
2017-08-06T02:59:10.023Z,1018.93
2017-08-06T03:00:19.551Z,1018.93
2017-08-06T03:01:29.334Z,1018.95
2017-08-06T03:02:38.216Z,1018.98
2017-08-06T03:03:47.419Z,1018.99
2017-08-06T03:04:56.945Z,1018.98
2017-08-06T03:06:06.795Z,1018.99
2017-08-06T03:07:16.472Z,1018.98
2017-08-06T03:08:25.673Z,1019
2017-08-06T03:09:34.551Z,1019.01
2017-08-06T03:10:44.080Z,1019.02
2017-08-06T03:11:52.961Z,1019.01
2017-08-06T03:13:02.317Z,1019.03
2017-08-06T03:14:11.197Z,1019.01
2017-08-06T03:15:20.420Z,1019.02
2017-08-06T03:16:29.300Z,1019.06
2017-08-06T03:17:38.827Z,1019.06
2017-08-06T03:18:48.826Z,1019.09
2017-08-06T03:19:58.349Z,1019.1
2017-08-06T03:21:07.553Z,1019.12
2017-08-06T03:22:16.434Z,1019.2
2017-08-06T03:23:25.638Z,1019.13
2017-08-06T03:24:34.994Z,1019.18
2017-08-06T03:25:43.876Z,1019.18
2017-08-06T03:26:53.733Z,1019.21
2017-08-06T03:28:02.939Z,1019.19
2017-08-06T03:29:12.469Z,1019.2
2017-08-06T03:30:22.181Z,1019.21
2017-08-06T03:31:32.046Z,1019.19
2017-08-06T03:32:41.248Z,1019.22
2017-08-06T03:33:51.101Z,1019.2
2017-08-06T03:35:00.308Z,1019.17
2017-08-06T03:36:10.146Z,1019.26
2017-08-06T03:37:19.687Z,1019.28
2017-08-06T03:38:28.889Z,1019.32
2017-08-06T03:39:38.095Z,1019.27
2017-08-06T03:40:47.302Z,1019.34
2017-08-06T03:41:56.658Z,1019.35
2017-08-06T03:43:05.866Z,1019.3
2017-08-06T03:44:15.722Z,1019.35
2017-08-06T03:45:25.899Z,1019.38
2017-08-06T03:46:35.422Z,1019.38
2017-08-06T03:47:44.673Z,1019.4
2017-08-06T03:48:54.534Z,1019.45
2017-08-06T03:50:04.388Z,1019.47
2017-08-06T03:51:13.915Z,1019.48
2017-08-06T03:52:22.802Z,1019.48
2017-08-06T03:53:31.682Z,1019.49
2017-08-06T03:54:41.211Z,1019.48
2017-08-06T03:55:50.736Z,1019.44
2017-08-06T03:56:59.941Z,1019.49
2017-08-06T03:58:09.485Z,1019.49
2017-08-06T03:59:18.838Z,1019.53
2017-08-06T04:00:28.365Z,1019.53
2017-08-06T04:01:37.256Z,1019.54
2017-08-06T04:02:46.787Z,1019.56
2017-08-06T04:03:56.312Z,1019.54
2017-08-06T04:05:05.994Z,1019.54
2017-08-06T04:06:15.847Z,1019.53
2017-08-06T04:07:25.701Z,1019.55
2017-08-06T04:08:35.225Z,1019.55
2017-08-06T04:09:44.753Z,1019.53
2017-08-06T04:10:53.633Z,1019.57
2017-08-06T04:12:03.482Z,1019.64
2017-08-06T04:13:13.337Z,1019.65
2017-08-06T04:14:22.866Z,1019.71
2017-08-06T04:15:32.394Z,1019.71
2017-08-06T04:16:41.749Z,1019.69
2017-08-06T04:17:50.953Z,1019.74
2017-08-06T04:19:00.813Z,1019.73
2017-08-06T04:20:10.718Z,1019.76
2017-08-06T04:21:20.569Z,1019.8
2017-08-06T04:22:30.246Z,1019.78
2017-08-06T04:23:39.448Z,1019.78
2017-08-06T04:24:48.333Z,1019.78
2017-08-06T04:25:57.215Z,1019.8
2017-08-06T04:27:06.420Z,1019.86
2017-08-06T04:28:16.099Z,1019.85
2017-08-06T04:29:25.628Z,1019.85
2017-08-06T04:30:34.840Z,1019.86
2017-08-06T04:31:44.697Z,1019.9
2017-08-06T04:32:54.548Z,1019.89
2017-08-06T04:34:04.375Z,1019.89
2017-08-06T04:35:13.580Z,1019.91
2017-08-06T04:36:23.108Z,1019.96
2017-08-06T04:37:32.314Z,1019.99
2017-08-06T04:38:41.517Z,1019.99
2017-08-06T04:39:50.920Z,1019.98
2017-08-06T04:41:00.451Z,1019.99
2017-08-06T04:42:09.980Z,1020.02
2017-08-06T04:43:19.505Z,1020.03
2017-08-06T04:44:29.031Z,1020
2017-08-06T04:45:38.114Z,1019.96
2017-08-06T04:46:46.997Z,1019.98
2017-08-06T04:47:56.526Z,1020
2017-08-06T04:49:05.736Z,1020.01
2017-08-06T04:50:14.938Z,1020.01
2017-08-06T04:51:24.292Z,1020.04
2017-08-06T04:52:33.496Z,1020.03
2017-08-06T04:53:43.024Z,1020.01
2017-08-06T04:54:52.878Z,1020.09
2017-08-06T04:56:02.735Z,1020.08
2017-08-06T04:57:11.942Z,1020.07
2017-08-06T04:58:21.153Z,1020.04
2017-08-06T04:59:30.685Z,1020.03
2017-08-06T05:00:40.216Z,1020.02
2017-08-06T05:01:49.422Z,1020.09
2017-08-06T05:02:59.161Z,1020.07
2017-08-06T05:04:09.010Z,1020.08
2017-08-06T05:05:17.903Z,1020.08
2017-08-06T05:06:27.116Z,1020.12
2017-08-06T05:07:36.970Z,1020.13
2017-08-06T05:08:46.824Z,1020.16
2017-08-06T05:09:56.029Z,1020.14
2017-08-06T05:11:05.554Z,1020.16
2017-08-06T05:12:14.432Z,1020.17
2017-08-06T05:13:23.964Z,1020.21
2017-08-06T05:14:33.321Z,1020.23
2017-08-06T05:15:42.524Z,1020.24
2017-08-06T05:16:51.729Z,1020.2
2017-08-06T05:18:00.930Z,1020.26
2017-08-06T05:19:10.161Z,1020.25
2017-08-06T05:20:20.166Z,1020.31
2017-08-06T05:21:30.355Z,1020.27
2017-08-06T05:22:39.566Z,1020.28
2017-08-06T05:23:48.451Z,1020.24
2017-08-06T05:24:57.661Z,1020.23
2017-08-06T05:26:07.774Z,1020.25
2017-08-06T05:27:17.300Z,1020.23
2017-08-06T05:28:27.154Z,1020.3
2017-08-06T05:29:37.034Z,1020.34
2017-08-06T05:30:46.566Z,1020.29
2017-08-06T05:31:55.877Z,1020.3
2017-08-06T05:33:05.407Z,1020.34
2017-08-06T05:34:14.614Z,1020.31
2017-08-06T05:35:23.501Z,1020.37
2017-08-06T05:36:32.383Z,1020.35
2017-08-06T05:37:41.318Z,1020.33
2017-08-06T05:38:50.529Z,1020.4
2017-08-06T05:40:00.069Z,1020.31
2017-08-06T05:41:09.924Z,1020.35
2017-08-06T05:42:19.778Z,1020.4
2017-08-06T05:43:29.462Z,1020.45
2017-08-06T05:44:38.988Z,1020.45
2017-08-06T05:45:48.197Z,1020.49
2017-08-06T05:46:58.051Z,1020.5
2017-08-06T05:48:08.225Z,1020.57
2017-08-06T05:49:18.125Z,1020.53
2017-08-06T05:50:27.978Z,1020.55
2017-08-06T05:51:37.507Z,1020.56
2017-08-06T05:52:46.389Z,1020.59
2017-08-06T05:53:55.600Z,1020.59
2017-08-06T05:55:05.726Z,1020.6
2017-08-06T05:56:15.260Z,1020.61
2017-08-06T05:57:25.430Z,1020.62
2017-08-06T05:58:35.278Z,1020.65
2017-08-06T05:59:45.129Z,1020.62
2017-08-06T06:00:55.183Z,1020.63
2017-08-06T06:02:04.072Z,1020.61
2017-08-06T06:03:13.933Z,1020.62
2017-08-06T06:04:23.464Z,1020.69
2017-08-06T06:05:33.002Z,1020.66
2017-08-06T06:06:41.979Z,1020.72
2017-08-06T06:07:50.862Z,1020.7
2017-08-06T06:09:00.404Z,1020.68
2017-08-06T06:10:10.254Z,1020.69
2017-08-06T06:11:20.116Z,1020.72
2017-08-06T06:12:29.753Z,1020.7
2017-08-06T06:13:39.616Z,1020.7
2017-08-06T06:14:49.471Z,1020.67
2017-08-06T06:15:59.329Z,1020.73
2017-08-06T06:17:08.867Z,1020.79
2017-08-06T06:18:18.865Z,1020.8
2017-08-06T06:19:28.401Z,1020.81
2017-08-06T06:20:37.609Z,1020.84
2017-08-06T06:21:46.812Z,1020.8
2017-08-06T06:22:56.019Z,1020.8
2017-08-06T06:24:05.428Z,1020.82
2017-08-06T06:25:15.284Z,1020.86
2017-08-06T06:26:24.816Z,1020.88
2017-08-06T06:27:34.667Z,1020.8
2017-08-06T06:28:43.870Z,1020.88
2017-08-06T06:29:53.399Z,1020.85
2017-08-06T06:31:02.628Z,1020.84
2017-08-06T06:32:12.162Z,1020.86
2017-08-06T06:33:22.022Z,1020.88
2017-08-06T06:34:31.227Z,1020.87
2017-08-06T06:35:40.682Z,1020.91
2017-08-06T06:36:50.210Z,1020.94
2017-08-06T06:38:00.063Z,1020.94
2017-08-06T06:39:09.922Z,1020.94
2017-08-06T06:40:19.130Z,1020.98
2017-08-06T06:41:28.492Z,1020.98
2017-08-06T06:42:38.020Z,1021.01
2017-08-06T06:43:47.226Z,1021.03
2017-08-06T06:44:56.756Z,1021.01
2017-08-06T06:46:06.302Z,1020.99
2017-08-06T06:47:15.607Z,1021.08
2017-08-06T06:48:24.489Z,1021.05
2017-08-06T06:49:34.017Z,1021.06
2017-08-06T06:50:42.902Z,1021.07
2017-08-06T06:51:52.437Z,1021.1
2017-08-06T06:53:02.610Z,1021.13
2017-08-06T06:54:12.136Z,1021.15
2017-08-06T06:55:21.991Z,1021.21
2017-08-06T06:56:31.519Z,1021.17
2017-08-06T06:57:40.738Z,1021.19
2017-08-06T06:58:50.914Z,1021.2
2017-08-06T07:00:00.774Z,1021.18
2017-08-06T07:01:09.668Z,1021.22
2017-08-06T07:02:19.520Z,1021.26
2017-08-06T07:03:28.740Z,1021.28
2017-08-06T07:04:38.699Z,1021.28
2017-08-06T07:05:48.232Z,1021.3
2017-08-06T07:06:57.761Z,1021.32
2017-08-06T07:08:06.641Z,1021.33
2017-08-06T07:09:16.173Z,1021.29
2017-08-06T07:10:25.355Z,1021.43
2017-08-06T07:11:34.883Z,1021.29
2017-08-06T07:12:44.410Z,1021.37
2017-08-06T07:13:53.970Z,1021.34
2017-08-06T07:15:03.513Z,1021.38
2017-08-06T07:16:13.363Z,1021.44
2017-08-06T07:17:22.581Z,1021.4
2017-08-06T07:18:32.760Z,1021.45
2017-08-06T07:19:42.291Z,1021.43
2017-08-06T07:20:52.146Z,1021.44
2017-08-06T07:22:01.505Z,1021.5
2017-08-06T07:23:11.682Z,1021.51
2017-08-06T07:24:21.208Z,1021.53
2017-08-06T07:25:30.743Z,1021.52
2017-08-06T07:26:39.948Z,1021.52
2017-08-06T07:27:49.309Z,1021.5
2017-08-06T07:28:58.216Z,1021.56
2017-08-06T07:30:07.429Z,1021.59
2017-08-06T07:31:16.959Z,1021.64
2017-08-06T07:32:26.167Z,1021.67
2017-08-06T07:33:35.905Z,1021.66
2017-08-06T07:34:45.437Z,1021.71
2017-08-06T07:35:54.641Z,1021.69
2017-08-06T07:37:03.847Z,1021.68
2017-08-06T07:38:13.423Z,1021.66
2017-08-06T07:39:22.316Z,1021.71
2017-08-06T07:40:31.848Z,1021.66
2017-08-06T07:41:41.380Z,1021.7
2017-08-06T07:42:50.907Z,1021.68
2017-08-06T07:44:00.111Z,1021.75
2017-08-06T07:45:09.701Z,1021.78
2017-08-06T07:46:18.590Z,1021.73
2017-08-06T07:47:28.126Z,1021.76
2017-08-06T07:48:37.015Z,1021.72
2017-08-06T07:49:46.219Z,1021.72
2017-08-06T07:50:56.556Z,1021.75
2017-08-06T07:52:06.090Z,1021.73
2017-08-06T07:53:15.945Z,1021.71
2017-08-06T07:54:25.479Z,1021.77
2017-08-06T07:55:35.026Z,1021.74
2017-08-06T07:56:44.757Z,1021.7
2017-08-06T07:57:54.287Z,1021.71
2017-08-06T07:59:03.514Z,1021.79
2017-08-06T08:00:13.693Z,1021.84
2017-08-06T08:01:23.557Z,1021.79
2017-08-06T08:02:32.868Z,1021.81
2017-08-06T08:03:43.054Z,1021.82
2017-08-06T08:04:52.590Z,1021.88
2017-08-06T08:06:01.478Z,1021.94
2017-08-06T08:07:11.661Z,1021.83
2017-08-06T08:08:21.566Z,1021.85
2017-08-06T08:09:31.097Z,1021.83
2017-08-06T08:10:40.629Z,1021.91
2017-08-06T08:11:49.513Z,1021.85
2017-08-06T08:12:59.047Z,1021.91
2017-08-06T08:14:08.734Z,1021.88
2017-08-06T08:15:18.261Z,1021.95
2017-08-06T08:16:28.123Z,1021.89
2017-08-06T08:17:38.302Z,1021.85
2017-08-06T08:18:47.840Z,1021.88
2017-08-06T08:19:57.252Z,1021.94
2017-08-06T08:21:07.432Z,1021.96
2017-08-06T08:22:16.640Z,1021.93
2017-08-06T08:23:26.171Z,1021.97
2017-08-06T08:24:36.022Z,1021.98
2017-08-06T08:25:46.078Z,1021.97
2017-08-06T08:26:55.932Z,1021.95
2017-08-06T08:28:05.139Z,1021.96
2017-08-06T08:29:14.670Z,1021.92
2017-08-06T08:30:23.877Z,1021.98
2017-08-06T08:31:33.141Z,1021.86
2017-08-06T08:32:42.357Z,1022.01
2017-08-06T08:33:51.271Z,1021.98
2017-08-06T08:35:00.192Z,1022.03
2017-08-06T08:36:10.054Z,1021.98
2017-08-06T08:37:19.361Z,1022.05
2017-08-06T08:38:28.570Z,1022.05
2017-08-06T08:39:37.780Z,1022.01
2017-08-06T08:40:46.669Z,1022.04
2017-08-06T08:41:55.873Z,1022.11
2017-08-06T08:43:05.381Z,1022.09
2017-08-06T08:44:14.911Z,1022.05
2017-08-06T08:45:23.802Z,1022.09
2017-08-06T08:46:33.330Z,1022.08
2017-08-06T08:47:43.510Z,1022.09
2017-08-06T08:48:53.150Z,1022.03
2017-08-06T08:50:02.682Z,1022.03
2017-08-06T08:51:11.892Z,1022.06
2017-08-06T08:52:21.748Z,1022.05
2017-08-06T08:53:30.956Z,1022.15
2017-08-06T08:54:40.262Z,1022.1
2017-08-06T08:55:49.801Z,1022.17
2017-08-06T08:56:59.005Z,1022.16
2017-08-06T08:58:08.533Z,1022.16
2017-08-06T08:59:18.063Z,1022.18
2017-08-06T09:00:27.664Z,1022.23
2017-08-06T09:01:36.872Z,1022.21
2017-08-06T09:02:47.087Z,1022.22
2017-08-06T09:03:56.619Z,1022.22
2017-08-06T09:05:06.800Z,1022.31
2017-08-06T09:06:16.548Z,1022.26
2017-08-06T09:07:25.432Z,1022.19
2017-08-06T09:08:35.287Z,1022.19
2017-08-06T09:09:44.499Z,1022.24
2017-08-06T09:10:53.385Z,1022.24
2017-08-06T09:12:03.065Z,1022.29
2017-08-06T09:13:12.277Z,1022.31
2017-08-06T09:14:21.485Z,1022.29
2017-08-06T09:15:30.693Z,1022.25
2017-08-06T09:16:40.225Z,1022.22
2017-08-06T09:17:49.162Z,1022.21
2017-08-06T09:18:59.018Z,1022.21
2017-08-06T09:20:08.553Z,1022.24
2017-08-06T09:21:17.769Z,1022.26
2017-08-06T09:22:26.973Z,1022.24
2017-08-06T09:23:36.109Z,1022.19
2017-08-06T09:24:45.318Z,1022.18
2017-08-06T09:25:54.537Z,1022.27
2017-08-06T09:27:03.744Z,1022.27
2017-08-06T09:28:13.275Z,1022.28
2017-08-06T09:29:22.495Z,1022.27
2017-08-06T09:30:32.348Z,1022.27
2017-08-06T09:31:41.565Z,1022.28
2017-08-06T09:32:50.775Z,1022.23
2017-08-06T09:34:00.002Z,1022.25
2017-08-06T09:35:09.914Z,1022.33
2017-08-06T09:36:19.447Z,1022.23
2017-08-06T09:37:28.340Z,1022.2
2017-08-06T09:38:37.549Z,1022.25
2017-08-06T09:39:46.759Z,1022.29
2017-08-06T09:40:56.217Z,1022.32
2017-08-06T09:42:05.114Z,1022.32
2017-08-06T09:43:14.323Z,1022.31
2017-08-06T09:44:23.854Z,1022.21
2017-08-06T09:45:33.062Z,1022.23
2017-08-06T09:46:42.424Z,1022.27
2017-08-06T09:47:51.638Z,1022.27
2017-08-06T09:49:01.172Z,1022.3
2017-08-06T09:50:11.041Z,1022.25
2017-08-06T09:51:20.901Z,1022.33
2017-08-06T09:52:30.173Z,1022.26
2017-08-06T09:53:39.383Z,1022.29
2017-08-06T09:54:49.237Z,1022.34
2017-08-06T09:55:58.767Z,1022.31
2017-08-06T09:57:08.629Z,1022.31
2017-08-06T09:58:18.540Z,1022.38
2017-08-06T09:59:27.749Z,1022.34
2017-08-06T10:00:36.641Z,1022.39
2017-08-06T10:01:46.171Z,1022.39
2017-08-06T10:02:55.705Z,1022.37
2017-08-06T10:04:05.404Z,1022.4
2017-08-06T10:05:14.617Z,1022.37
2017-08-06T10:06:23.505Z,1022.39
2017-08-06T10:07:33.037Z,1022.39
2017-08-06T10:08:42.247Z,1022.31
2017-08-06T10:09:51.341Z,1022.37
2017-08-06T10:11:00.554Z,1022.35
2017-08-06T10:12:10.737Z,1022.39
2017-08-06T10:13:19.623Z,1022.28
2017-08-06T10:14:28.838Z,1022.44
2017-08-06T10:15:38.681Z,1022.36
2017-08-06T10:16:47.892Z,1022.36
2017-08-06T10:17:57.425Z,1022.3
2017-08-06T10:19:06.959Z,1022.31
2017-08-06T10:20:16.816Z,1022.34
2017-08-06T10:21:26.397Z,1022.37
2017-08-06T10:22:35.932Z,1022.35
2017-08-06T10:23:45.473Z,1022.35
2017-08-06T10:24:55.016Z,1022.32
2017-08-06T10:26:04.550Z,1022.3
2017-08-06T10:27:13.862Z,1022.32
2017-08-06T10:28:23.726Z,1022.22
2017-08-06T10:29:32.948Z,1022.3
2017-08-06T10:30:42.480Z,1022.28
2017-08-06T10:31:52.332Z,1022.29
2017-08-06T10:33:01.690Z,1022.32
2017-08-06T10:34:10.727Z,1022.24
2017-08-06T10:35:19.959Z,1022.23
2017-08-06T10:36:29.493Z,1022.24
2017-08-06T10:37:39.034Z,1022.24
2017-08-06T10:38:48.545Z,1022.28
2017-08-06T10:39:58.078Z,1022.2
2017-08-06T10:41:07.290Z,1022.25
2017-08-06T10:42:16.176Z,1022.21
2017-08-06T10:43:25.407Z,1022.27
2017-08-06T10:44:34.393Z,1022.21
2017-08-06T10:45:43.926Z,1022.15
2017-08-06T10:46:53.135Z,1022.25
2017-08-06T10:48:02.992Z,1022.22
2017-08-06T10:49:12.524Z,1022.24
2017-08-06T10:50:22.427Z,1022.19
2017-08-06T10:51:31.972Z,1022.2
2017-08-06T10:52:41.183Z,1022.17
2017-08-06T10:53:50.715Z,1022.26
2017-08-06T10:55:00.246Z,1022.18
2017-08-06T10:56:09.508Z,1022.21
2017-08-06T10:57:19.042Z,1022.29
2017-08-06T10:58:28.598Z,1022.23
2017-08-06T10:59:38.126Z,1022.2
2017-08-06T11:00:47.346Z,1022.19
2017-08-06T11:01:57.200Z,1022.22
2017-08-06T11:03:06.414Z,1022.24
2017-08-06T11:04:15.953Z,1022.18
2017-08-06T11:05:25.485Z,1022.22
2017-08-06T11:06:34.693Z,1022.23
2017-08-06T11:07:44.700Z,1022.19
2017-08-06T11:08:53.910Z,1022.21
2017-08-06T11:10:03.442Z,1022.26
2017-08-06T11:11:13.301Z,1022.17
2017-08-06T11:12:22.833Z,1022.14
2017-08-06T11:13:33.067Z,1022.08
2017-08-06T11:14:42.277Z,1022.15
2017-08-06T11:15:51.807Z,1022.11
2017-08-06T11:17:01.025Z,1022.1
2017-08-06T11:18:10.884Z,1022.11
2017-08-06T11:19:20.248Z,1022.11
2017-08-06T11:20:29.461Z,1022.15
2017-08-06T11:21:38.676Z,1022.17
2017-08-06T11:22:48.218Z,1022.16
2017-08-06T11:23:57.432Z,1022.16
2017-08-06T11:25:07.066Z,1022.13
2017-08-06T11:26:16.598Z,1022.18
2017-08-06T11:27:26.778Z,1022.16
2017-08-06T11:28:35.994Z,1022.14
2017-08-06T11:29:45.546Z,1022.14
2017-08-06T11:30:55.233Z,1022.14
2017-08-06T11:32:04.121Z,1022.16
2017-08-06T11:33:13.335Z,1022.17
2017-08-06T11:34:23.198Z,1022.19
2017-08-06T11:35:32.412Z,1022.19
2017-08-06T11:36:41.729Z,1022.21
2017-08-06T11:37:50.947Z,1022.13
2017-08-06T11:39:00.177Z,1022.18
2017-08-06T11:40:09.388Z,1022.22
2017-08-06T11:41:19.246Z,1022.22
2017-08-06T11:42:28.614Z,1022.17
2017-08-06T11:43:37.826Z,1022.17
2017-08-06T11:44:47.364Z,1022.16
2017-08-06T11:45:56.576Z,1022.22
2017-08-06T11:47:06.437Z,1022.19
2017-08-06T11:48:15.379Z,1022.22
2017-08-06T11:49:24.594Z,1022.23
2017-08-06T11:50:33.482Z,1022.22
2017-08-06T11:51:43.014Z,1022.16
2017-08-06T11:52:51.908Z,1022.2
2017-08-06T11:54:00.946Z,1022.18
2017-08-06T11:55:10.483Z,1022.15
2017-08-06T11:56:19.370Z,1022.17
2017-08-06T11:57:28.583Z,1022.2
2017-08-06T11:58:37.793Z,1022.2
2017-08-06T11:59:47.427Z,1022.22
2017-08-06T12:00:57.284Z,1022.27
2017-08-06T12:02:06.825Z,1022.24
2017-08-06T12:03:17.007Z,1022.21
2017-08-06T12:04:26.540Z,1022.29
2017-08-06T12:05:35.900Z,1022.25
2017-08-06T12:06:45.470Z,1022.25
2017-08-06T12:07:54.677Z,1022.28
2017-08-06T12:09:04.209Z,1022.26
2017-08-06T12:10:13.422Z,1022.24
2017-08-06T12:11:23.056Z,1022.23
2017-08-06T12:12:32.918Z,1022.22
2017-08-06T12:13:42.776Z,1022.22
2017-08-06T12:14:51.671Z,1022.24
2017-08-06T12:16:00.889Z,1022.32
2017-08-06T12:17:10.400Z,1022.32
2017-08-06T12:18:20.263Z,1022.39
2017-08-06T12:19:29.493Z,1022.39
2017-08-06T12:20:38.392Z,1022.35
2017-08-06T12:21:47.606Z,1022.28
2017-08-06T12:22:57.522Z,1022.42
2017-08-06T12:24:07.059Z,1022.33
2017-08-06T12:25:16.275Z,1022.36
2017-08-06T12:26:26.141Z,1022.42
2017-08-06T12:27:35.687Z,1022.35
2017-08-06T12:28:44.693Z,1022.35
2017-08-06T12:29:54.235Z,1022.37
2017-08-06T12:31:03.789Z,1022.35
2017-08-06T12:32:13.008Z,1022.33
2017-08-06T12:33:22.224Z,1022.35
2017-08-06T12:34:31.270Z,1022.38
2017-08-06T12:35:40.492Z,1022.39
2017-08-06T12:36:49.710Z,1022.42
2017-08-06T12:37:59.494Z,1022.42
2017-08-06T12:39:08.712Z,1022.36
2017-08-06T12:40:18.359Z,1022.36
2017-08-06T12:41:27.590Z,1022.34
2017-08-06T12:42:36.813Z,1022.37
2017-08-06T12:43:46.046Z,1022.33
2017-08-06T12:44:54.950Z,1022.39
2017-08-06T12:46:04.599Z,1022.35
2017-08-06T12:47:13.829Z,1022.38
2017-08-06T12:48:23.051Z,1022.37
2017-08-06T12:49:32.599Z,1022.37
2017-08-06T12:50:42.474Z,1022.4
2017-08-06T12:51:52.505Z,1022.35
2017-08-06T12:53:01.724Z,1022.39
2017-08-06T12:54:11.272Z,1022.45
2017-08-06T12:55:20.171Z,1022.42
2017-08-06T12:56:29.394Z,1022.38
2017-08-06T12:57:39.101Z,1022.43
2017-08-06T12:58:48.666Z,1022.41
2017-08-06T12:59:58.210Z,1022.45
2017-08-06T13:01:07.760Z,1022.4
2017-08-06T13:02:17.631Z,1022.42
2017-08-06T13:03:27.058Z,1022.38
2017-08-06T13:04:36.608Z,1022.41
2017-08-06T13:05:45.837Z,1022.42
2017-08-06T13:06:55.063Z,1022.48
2017-08-06T13:08:04.938Z,1022.37
2017-08-06T13:09:14.538Z,1022.27
2017-08-06T13:10:24.412Z,1022.45
2017-08-06T13:11:33.316Z,1022.48
2017-08-06T13:12:42.548Z,1022.4
2017-08-06T13:13:52.417Z,1022.4
2017-08-06T13:15:01.758Z,1022.34
2017-08-06T13:16:11.685Z,1022.39
2017-08-06T13:17:20.908Z,1022.44
2017-08-06T13:18:30.456Z,1022.51
2017-08-06T13:19:40.002Z,1022.5
2017-08-06T13:20:49.376Z,1022.52
2017-08-06T13:21:58.620Z,1022.53
2017-08-06T13:23:08.173Z,1022.48
2017-08-06T13:24:18.050Z,1022.49
2017-08-06T13:25:27.272Z,1022.45
2017-08-06T13:26:36.378Z,1022.27
2017-08-06T13:27:45.925Z,1022.41
2017-08-06T13:28:54.827Z,1022.29
2017-08-06T13:30:04.053Z,1022.31
2017-08-06T13:31:13.599Z,1022.37
2017-08-06T13:32:22.979Z,1022.42
2017-08-06T13:33:32.520Z,1022.39
2017-08-06T13:34:41.744Z,1022.41
2017-08-06T13:35:50.964Z,1022.35
2017-08-06T13:37:00.182Z,1022.38
2017-08-06T13:38:09.942Z,1022.4
2017-08-06T13:39:18.861Z,1022.37
2017-08-06T13:40:28.076Z,1022.31
2017-08-06T13:41:36.971Z,1022.36
2017-08-06T13:42:46.187Z,1022.35
2017-08-06T13:43:55.780Z,1022.31
2017-08-06T13:45:05.320Z,1022.4
2017-08-06T13:46:14.212Z,1022.35
2017-08-06T13:47:23.106Z,1022.32
2017-08-06T13:48:32.320Z,1022.31
2017-08-06T13:49:41.840Z,1022.34
2017-08-06T13:50:51.427Z,1022.36
2017-08-06T13:52:00.646Z,1022.35
2017-08-06T13:53:09.864Z,1022.36
2017-08-06T13:54:18.755Z,1022.35
2017-08-06T13:55:28.018Z,1022.3
2017-08-06T13:56:36.905Z,1022.32
2017-08-06T13:57:46.124Z,1022.37
2017-08-06T13:58:55.337Z,1022.35
2017-08-06T14:00:04.550Z,1022.36
2017-08-06T14:01:13.819Z,1022.4
2017-08-06T14:02:23.355Z,1022.39
2017-08-06T14:03:32.890Z,1022.42